Time;durP1;ratioP1;P1;durP2;ratioP2;P2;SDS_P1;SDS_P2;PMS_P1;PMS_P2;Temp;Humidity;BMP_temperature;BMP_pressure;BME280_temperature;BME280_humidity;BME280_pressure;Samples;Min_cycle;Max_cycle;Signal;HPM_P1;HPM_P2
2022/07/04 00:00:57;;;;;;;5.15;2.58;;;;;;;26.72;49.35;101094.94;5034411;28;20454;-74
2022/07/04 00:03:43;;;;;;;6.28;2.70;;;;;;;26.73;49.43;101108.22;5047154;28;20118;-74
2022/07/04 00:06:29;;;;;;;4.63;2.80;;;;;;;26.94;48.77;101098.50;5074890;28;20028;-73
2022/07/04 00:09:14;;;;;;;3.63;2.50;;;;;;;26.90;48.79;101102.41;5059066;28;20530;-75
2022/07/04 00:12:00;;;;;;;5.15;2.50;;;;;;;26.78;49.09;101110.56;5074126;28;20407;-73
2022/07/04 00:14:46;;;;;;;3.88;2.80;;;;;;;27.04;48.38;101112.03;5074039;28;20021;-72
2022/07/04 00:17:32;;;;;;;3.03;2.67;;;;;;;27.06;49.70;101112.78;5073591;28;20032;-72
2022/07/04 00:20:18;;;;;;;3.25;2.70;;;;;;;26.86;51.01;101109.00;5074803;28;20040;-73
2022/07/04 00:23:04;;;;;;;5.88;2.85;;;;;;;26.85;53.06;101104.56;5073217;28;20116;-73
2022/07/04 00:25:50;;;;;;;3.95;2.50;;;;;;;26.84;53.37;101100.19;5074598;28;20427;-73
2022/07/04 00:28:36;;;;;;;3.70;2.95;;;;;;;26.50;53.84;101097.53;5075045;28;20028;-73
2022/07/04 00:31:21;;;;;;;3.58;2.60;;;;;;;26.42;54.57;101094.56;5075552;28;20032;-74
2022/07/04 00:34:08;;;;;;;4.20;2.58;;;;;;;26.39;53.51;101092.97;5075711;28;20115;-74
2022/07/04 00:36:54;;;;;;;4.35;2.75;;;;;;;26.45;54.85;101089.81;5074463;28;20138;-75
2022/07/04 00:39:40;;;;;;;5.82;2.83;;;;;;;26.53;56.33;101103.50;5073029;28;20346;-74
2022/07/04 00:42:26;;;;;;;3.85;2.80;;;;;;;26.71;54.12;101094.06;5073441;28;20032;-74
2022/07/04 00:45:12;;;;;;;5.82;2.90;;;;;;;26.37;54.09;101099.44;5073802;28;20031;-74
2022/07/04 00:47:57;;;;;;;3.92;2.70;;;;;;;26.71;51.78;101104.81;5072839;28;20468;-72
2022/07/04 00:50:44;;;;;;;5.35;3.05;;;;;;;26.47;50.24;101111.19;5060032;28;20029;-72
2022/07/04 00:53:31;;;;;;;4.35;2.45;;;;;;;26.30;51.10;101106.25;5074640;28;20021;-73
2022/07/04 00:56:16;;;;;;;7.53;2.97;;;;;;;26.80;50.36;101114.00;5074238;28;20029;-73
2022/07/04 00:59:03;;;;;;;7.43;2.83;;;;;;;26.59;51.02;101111.16;5073404;28;20016;-73
2022/07/04 01:01:50;;;;;;;3.00;2.67;;;;;;;26.45;51.03;101107.78;5059295;28;20025;-73
2022/07/04 01:04:36;;;;;;;4.47;2.72;;;;;;;26.33;50.75;101109.56;5073721;28;20085;-73
2022/07/04 01:07:22;;;;;;;3.90;2.90;;;;;;;26.32;50.75;101107.00;5074923;28;20478;-73
2022/07/04 01:10:09;;;;;;;4.03;2.80;;;;;;;26.11;51.59;101101.44;5073341;28;20055;-73
2022/07/04 01:12:55;;;;;;;5.18;2.70;;;;;;;26.36;50.76;101092.38;5073491;28;20052;-73
2022/07/04 01:15:40;;;;;;;4.97;2.72;;;;;;;26.37;50.55;101094.91;5076965;28;20056;-73
2022/07/04 01:18:26;;;;;;;4.75;2.90;;;;;;;26.14;51.26;101089.59;5076027;28;20031;-74
2022/07/04 01:21:13;;;;;;;3.33;2.80;;;;;;;26.30;51.24;101096.38;5062107;28;20032;-73
2022/07/04 01:23:58;;;;;;;3.33;2.63;;;;;;;26.26;50.39;101097.59;5076113;28;20062;-74
2022/07/04 01:26:44;;;;;;;6.40;2.75;;;;;;;26.58;49.79;101089.75;5076695;28;20112;-73
2022/07/04 01:29:31;;;;;;;11.45;3.22;;;;;;;26.32;50.62;101091.72;5075640;28;20056;-75
2022/07/04 01:32:17;;;;;;;10.27;2.88;;;;;;;26.48;49.94;101092.25;5076305;28;20028;-74
2022/07/04 01:35:03;;;;;;;3.20;2.63;;;;;;;26.54;49.00;101093.63;5060851;28;20477;-74
2022/07/04 01:37:50;;;;;;;2.83;2.28;;;;;;;26.38;48.76;101107.41;5076332;28;20111;-73
2022/07/04 01:40:35;;;;;;;4.28;2.80;;;;;;;26.42;48.32;101102.63;5076228;28;20032;-73
2022/07/04 01:43:21;;;;;;;6.47;2.80;;;;;;;26.16;55.41;101103.78;5076164;28;20024;-74
2022/07/04 01:46:07;;;;;;;3.75;3.03;;;;;;;25.96;61.30;101104.41;5075394;28;20094;-73
2022/07/04 01:48:53;;;;;;;4.25;3.03;;;;;;;26.07;54.08;101108.00;5061503;28;20116;-73
2022/07/04 01:51:49;;;;;;;4.93;2.80;;;;;;;26.03;57.09;101105.66;5075444;28;20024;-73
2022/07/04 01:54:35;;;;;;;3.35;2.58;;;;;;;26.09;56.16;101108.75;5075991;28;20029;-74
2022/07/04 01:57:21;;;;;;;5.45;3.00;;;;;;;26.12;61.33;101108.50;5075501;28;20094;-74
2022/07/04 02:03:13;;;;;;;5.35;3.20;;;;;;;25.85;69.02;101102.50;5075432;28;20081;-73
2022/07/04 02:05:59;;;;;;;4.05;2.97;;;;;;;25.53;70.07;101109.38;5061045;28;20032;-74
2022/07/04 02:14:53;;;;;;;3.58;2.90;;;;;;;25.49;67.24;101113.25;5076172;28;20021;-74
2022/07/04 02:17:39;;;;;;;5.90;2.70;;;;;;;25.76;61.74;101102.31;5061444;28;20047;-73
2022/07/04 02:20:25;;;;;;;4.70;2.80;;;;;;;25.74;59.94;101104.25;5075954;28;20306;-74
2022/07/04 02:23:11;;;;;;;5.38;2.90;;;;;;;25.56;64.03;101116.34;5074632;28;20115;-74
2022/07/04 02:25:57;;;;;;;3.97;2.90;;;;;;;25.17;66.78;101116.50;5060754;28;20082;-72
2022/07/04 02:28:43;;;;;;;7.57;3.17;;;;;;;25.18;66.87;101115.53;5075730;28;20043;-74
2022/07/04 02:31:28;;;;;;;4.30;2.88;;;;;;;25.11;67.47;101122.31;5075424;28;20094;-73
2022/07/04 02:34:14;;;;;;;3.15;2.83;;;;;;;25.08;68.14;101123.38;5074499;28;20122;-74
2022/07/04 02:37:00;;;;;;;5.65;3.35;;;;;;;24.99;70.16;101131.22;5075383;28;20031;-74
2022/07/04 02:39:46;;;;;;;6.00;2.92;;;;;;;24.96;70.78;101126.94;5059753;28;20418;-76
2022/07/04 02:42:33;;;;;;;4.97;3.15;;;;;;;25.06;68.40;101128.00;5075583;28;20104;-73
2022/07/04 02:45:19;;;;;;;6.68;3.05;;;;;;;25.08;67.16;101128.72;5075160;28;20094;-74
2022/07/04 02:48:05;;;;;;;6.40;2.85;;;;;;;25.04;65.89;101124.56;5075005;28;20360;-74
2022/07/04 02:50:50;;;;;;;4.03;2.78;;;;;;;25.12;65.50;101137.44;5074804;28;20028;-74
2022/07/04 02:53:36;;;;;;;4.82;3.03;;;;;;;25.24;58.14;101132.03;5060435;28;20036;-74
2022/07/04 02:56:22;;;;;;;6.30;3.28;;;;;;;25.37;57.03;101137.44;5074585;28;20024;-74
2022/07/04 02:59:08;;;;;;;4.18;3.20;;;;;;;25.47;58.56;101139.34;5074608;28;20139;-73
2022/07/04 03:01:54;;;;;;;4.35;3.03;;;;;;;25.56;58.95;101143.19;5059821;28;20468;-74
2022/07/04 03:04:40;;;;;;;4.78;3.00;;;;;;;25.21;63.24;101147.50;5073751;28;20080;-74
2022/07/04 03:07:26;;;;;;;5.22;3.20;;;;;;;24.81;66.91;101141.41;5074002;28;20020;-74
2022/07/04 03:10:11;;;;;;;5.68;3.13;;;;;;;24.94;66.74;101134.22;5074657;28;20571;-75
2022/07/04 03:12:57;;;;;;;5.75;3.13;;;;;;;25.12;67.45;101132.91;5075081;28;20040;-74
2022/07/04 03:15:43;;;;;;;6.07;3.05;;;;;;;25.09;67.43;101133.16;5060317;28;20116;-74
2022/07/04 03:18:29;;;;;;;5.68;3.20;;;;;;;24.97;69.18;101128.66;5074809;28;20442;-74
2022/07/04 03:21:14;;;;;;;7.72;3.63;;;;;;;25.01;69.98;101129.28;5059755;28;20449;-74
2022/07/04 03:24:00;;;;;;;4.80;2.83;;;;;;;25.19;65.39;101128.84;5074397;28;20032;-74
2022/07/04 03:26:46;;;;;;;6.88;3.58;;;;;;;25.17;66.93;101140.66;5074800;28;20171;-75
2022/07/04 03:29:32;;;;;;;4.32;3.22;;;;;;;25.40;65.69;101135.38;5074026;28;20533;-74
2022/07/04 03:32:17;;;;;;;6.60;3.28;;;;;;;25.42;64.13;101148.69;5074505;28;20131;-74
2022/07/04 03:35:03;;;;;;;6.20;2.97;;;;;;;25.59;64.60;101145.66;5074314;28;20115;-74
2022/07/04 03:37:50;;;;;;;5.00;2.80;;;;;;;25.30;69.46;101147.75;5074102;28;20028;-74
2022/07/04 03:40:38;;;;;;;8.13;3.20;;;;;;;25.14;70.40;101147.09;5074269;28;20464;-73
2022/07/04 03:43:23;;;;;;;4.70;3.05;;;;;;;25.34;71.29;101143.00;5074335;28;20036;-75
2022/07/04 03:46:09;;;;;;;3.72;3.10;;;;;;;25.43;71.95;101140.53;5074082;28;20036;-74
2022/07/04 03:48:55;;;;;;;8.73;3.58;;;;;;;25.35;71.64;101150.13;5073967;28;20457;-73
2022/07/04 03:51:41;;;;;;;5.47;3.35;;;;;;;25.44;72.36;101142.22;5074254;28;20484;-74
2022/07/04 03:54:28;;;;;;;4.65;3.08;;;;;;;25.64;71.46;101152.38;5074220;28;20097;-74
2022/07/04 03:57:14;;;;;;;4.65;3.33;;;;;;;25.45;75.18;101148.47;5059518;28;20123;-73
2022/07/04 04:00:00;;;;;;;4.00;3.10;;;;;;;25.65;77.31;101151.44;5073337;28;20357;-74
2022/07/04 04:02:46;;;;;;;4.65;2.75;;;;;;;25.82;78.97;101147.50;5073577;28;20031;-74
2022/07/04 04:05:32;;;;;;;4.30;3.10;;;;;;;25.65;81.59;101145.19;5073034;28;20469;-74
2022/07/04 04:08:18;;;;;;;4.60;3.03;;;;;;;25.92;83.15;101140.50;5073567;28;20369;-74
2022/07/04 04:11:06;;;;;;;5.40;3.22;;;;;;;26.27;79.70;101144.09;5059111;28;20356;-73
2022/07/04 04:13:52;;;;;;;7.28;3.40;;;;;;;26.34;79.52;101145.34;5074380;28;20469;-74
2022/07/04 04:16:42;;;;;;;4.88;3.38;;;;;;;26.34;80.05;101131.91;5073635;28;20028;-73
2022/07/04 04:19:28;;;;;;;5.25;3.15;;;;;;;26.35;82.19;101139.00;5074016;28;20032;-74
2022/07/04 04:22:13;;;;;;;6.03;2.90;;;;;;;26.30;81.06;101138.50;5073726;28;20413;-73
2022/07/04 04:24:59;;;;;;;5.65;3.20;;;;;;;25.98;82.56;101146.31;5059183;28;20033;-73
2022/07/04 04:27:45;;;;;;;4.00;3.10;;;;;;;25.80;84.55;101155.66;5073759;28;20028;-74
2022/07/04 04:30:31;;;;;;;6.40;3.33;;;;;;;25.92;85.76;101170.03;5074243;28;20028;-74
2022/07/04 04:33:16;;;;;;;4.30;3.10;;;;;;;25.76;86.15;101174.81;5074541;28;20115;-76
2022/07/04 04:36:02;;;;;;;9.90;3.30;;;;;;;25.59;87.69;101169.81;5073740;28;20102;-75
2022/07/04 04:38:48;;;;;;;4.82;3.22;;;;;;;25.67;90.89;101179.00;5073789;28;20029;-74
2022/07/04 04:41:34;;;;;;;6.65;3.50;;;;;;;26.09;90.39;101170.53;5058885;28;20113;-76
2022/07/04 04:44:20;;;;;;;7.82;4.13;;;;;;;26.11;93.21;101165.03;5072983;28;20071;-75
2022/07/04 04:47:06;;;;;;;10.23;4.10;;;;;;;26.10;95.60;101157.94;5074073;28;20024;-72
2022/07/04 04:49:51;;;;;;;7.30;4.15;;;;;;;26.30;95.57;101166.25;5077603;28;20037;-74
2022/07/04 04:52:38;;;;;;;8.48;3.60;;;;;;;26.49;93.70;101157.63;5077133;28;20421;-75
2022/07/04 04:55:24;;;;;;;10.63;3.40;;;;;;;26.29;90.35;101160.97;5076701;28;20115;-73
2022/07/04 04:58:10;;;;;;;10.55;3.83;;;;;;;26.37;84.18;101159.41;5062068;28;20035;-75
2022/07/04 05:00:55;;;;;;;9.25;3.83;;;;;;;26.59;84.32;101161.34;5077010;28;20036;-74
2022/07/04 05:03:41;;;;;;;13.32;4.15;;;;;;;26.43;75.02;101152.72;5077501;28;20052;-73
2022/07/04 05:06:27;;;;;;;10.60;4.40;;;;;;;26.15;71.71;101158.44;5076879;28;20334;-75
2022/07/04 05:09:13;;;;;;;20.85;3.83;;;;;;;26.36;69.79;101156.84;5076745;28;20334;-74
2022/07/04 05:11:59;;;;;;;8.02;3.83;;;;;;;26.66;67.68;101167.97;5076849;28;20033;-75
2022/07/04 05:14:44;;;;;;;10.52;4.30;;;;;;;26.99;67.29;101168.91;5062857;28;20029;-75
2022/07/04 05:17:30;;;;;;;13.90;4.90;;;;;;;27.12;64.37;101166.97;5076060;28;20453;-75
2022/07/04 05:20:16;;;;;;;12.30;4.72;;;;;;;27.17;60.90;101172.84;5077867;28;20023;-75
2022/07/04 05:23:02;;;;;;;16.73;5.35;;;;;;;27.32;60.68;101173.47;5076957;28;20115;-75
2022/07/04 05:25:48;;;;;;;8.88;4.60;;;;;;;27.68;59.39;101177.78;5076462;28;20509;-75
2022/07/04 05:28:34;;;;;;;13.00;5.10;;;;;;;27.38;61.21;101175.69;5061985;28;20039;-74
2022/07/04 05:31:19;;;;;;;12.75;4.53;;;;;;;27.39;59.83;101182.78;5077247;28;20381;-75
2022/07/04 05:34:05;;;;;;;11.80;5.00;;;;;;;27.95;60.82;101176.41;5061857;28;20115;-74
2022/07/04 05:36:51;;;;;;;12.40;4.53;;;;;;;26.80;74.91;101182.06;5077058;28;20028;-73
2022/07/04 05:39:37;;;;;;;16.58;5.00;;;;;;;27.34;74.38;101172.41;5061755;28;20453;-74
2022/07/04 05:42:23;;;;;;;13.05;5.35;;;;;;;27.41;69.77;101172.78;5076975;28;20046;-74
2022/07/04 05:45:09;;;;;;;14.68;4.93;;;;;;;27.83;68.42;101177.41;5075287;28;20036;-75
2022/07/04 05:47:55;;;;;;;18.13;5.22;;;;;;;27.69;73.43;101187.56;5076285;28;20469;-75
2022/07/04 05:50:40;;;;;;;15.50;4.97;;;;;;;27.94;77.42;101176.53;5062180;28;20024;-75
2022/07/04 05:53:26;;;;;;;10.00;4.40;;;;;;;27.76;74.87;101176.16;5076170;28;20032;-74
2022/07/04 05:56:12;;;;;;;9.25;4.18;;;;;;;28.08;65.50;101182.47;5061573;28;20029;-73
2022/07/04 05:58:58;;;;;;;8.93;4.50;;;;;;;28.41;64.69;101186.91;5075312;28;20342;-75
2022/07/04 06:01:44;;;;;;;7.18;3.55;;;;;;;28.28;46.07;101178.16;5076389;28;20020;-74
2022/07/04 06:04:30;;;;;;;17.88;3.83;;;;;;;28.52;56.25;101184.22;5075669;28;20387;-76
2022/07/04 06:07:17;;;;;;;9.98;4.57;;;;;;;28.30;72.32;101182.44;5075903;28;20024;-75
2022/07/04 06:10:04;;;;;;;8.73;4.30;;;;;;;28.40;69.76;101179.81;5075177;28;20036;-75
2022/07/04 06:12:50;;;;;;;7.13;3.63;;;;;;;28.50;54.22;101180.78;5075788;28;20032;-74
2022/07/04 06:15:35;;;;;;;13.40;4.63;;;;;;;28.37;70.22;101177.38;5075856;28;20028;-74
2022/07/04 06:18:21;;;;;;;10.30;4.10;;;;;;;28.98;63.25;101174.75;5076381;28;20021;-75
2022/07/04 06:55:36;;;;;;;6.35;3.35;;;;;;;31.66;40.67;101172.16;5175004;27;20174;-71
2022/07/04 06:58:22;;;;;;;5.68;3.75;;;;;;;31.36;40.74;101164.31;5172272;27;20031;-72
2022/07/04 07:01:07;;;;;;;6.00;3.50;;;;;;;31.65;39.84;101172.34;5172373;27;20026;-72
2022/07/04 07:03:53;;;;;;;5.10;3.30;;;;;;;31.96;40.40;101169.19;5171532;27;20026;-71
2022/07/04 07:06:39;;;;;;;4.40;3.17;;;;;;;32.12;40.73;101165.78;5172636;27;20039;-72
2022/07/04 07:09:25;;;;;;;5.72;3.30;;;;;;;32.47;39.74;101166.69;5172540;27;20084;-72
2022/07/04 07:12:10;;;;;;;6.03;3.17;;;;;;;33.10;40.31;101173.63;5171953;27;20332;-72
2022/07/04 07:14:56;;;;;;;5.88;3.45;;;;;;;32.87;39.63;101161.59;5172749;27;20435;-73
2022/07/04 07:17:42;;;;;;;6.07;3.72;;;;;;;31.69;40.19;101168.31;5172318;27;20030;-72
2022/07/04 07:20:28;;;;;;;8.63;3.95;;;;;;;32.36;38.33;101166.06;5171856;27;20471;-71
2022/07/04 07:23:14;;;;;;;5.35;3.38;;;;;;;32.11;38.22;101169.50;5171567;27;20050;-71
2022/07/04 07:25:59;;;;;;;6.72;3.50;;;;;;;32.37;38.21;101167.75;5171992;27;20101;-72
2022/07/04 07:28:45;;;;;;;7.70;3.58;;;;;;;32.26;39.15;101168.81;5171719;27;20082;-72
2022/07/04 07:31:31;;;;;;;6.38;3.58;;;;;;;32.68;39.07;101160.91;5172277;27;20034;-72
2022/07/04 07:34:17;;;;;;;10.43;4.03;;;;;;;32.89;38.01;101164.16;5171793;27;20423;-71
2022/07/04 07:37:03;;;;;;;7.22;3.90;;;;;;;33.08;39.03;101166.66;5172078;27;20026;-71
2022/07/04 07:39:49;;;;;;;5.75;3.83;;;;;;;33.07;37.87;101163.09;5171499;27;20048;-72
2022/07/04 07:42:35;;;;;;;6.63;3.40;;;;;;;33.16;37.85;101164.88;5171995;27;20105;-72
2022/07/04 07:45:21;;;;;;;10.18;4.28;;;;;;;33.60;37.48;101160.19;5170525;27;20014;-71
2022/07/04 07:48:07;;;;;;;11.07;4.00;;;;;;;33.34;37.69;101159.38;5172017;27;20038;-71
2022/07/04 07:50:52;;;;;;;5.53;3.30;;;;;;;34.13;37.45;101152.56;5171672;27;20034;-71
2022/07/04 07:53:38;;;;;;;8.23;3.85;;;;;;;33.02;38.39;101157.28;5169944;27;20122;-72
2022/07/04 07:56:24;;;;;;;7.50;5.30;;;;;;;33.94;37.31;101156.44;5157758;27;20026;-71
2022/07/04 07:59:10;;;;;;;7.03;4.03;;;;;;;33.71;37.02;101155.28;5157437;27;20083;-72
2022/07/04 08:01:56;;;;;;;7.55;4.28;;;;;;;34.00;36.91;101154.91;5157610;27;20038;-72
2022/07/04 08:04:41;;;;;;;20.90;4.55;;;;;;;34.76;36.69;101154.47;5156916;27;20083;-72
2022/07/04 08:07:27;;;;;;;10.70;4.47;;;;;;;34.51;36.11;101154.69;5156399;27;20087;-71
2022/07/04 08:10:13;;;;;;;8.13;4.25;;;;;;;34.74;35.82;101153.81;5157329;27;20429;-72
2022/07/04 08:12:59;;;;;;;6.05;3.63;;;;;;;34.60;35.59;101157.22;5157634;27;20030;-71
2022/07/04 08:15:45;;;;;;;7.07;3.88;;;;;;;33.58;37.50;101156.75;5157266;27;20039;-71
2022/07/04 08:18:31;;;;;;;9.35;3.92;;;;;;;34.39;37.10;101148.72;5157283;27;20023;-72
2022/07/04 08:21:17;;;;;;;8.73;5.03;;;;;;;34.49;36.79;101154.84;5157266;27;20042;-72
2022/07/04 08:24:03;;;;;;;9.85;5.65;;;;;;;34.51;37.01;101150.06;5156583;27;20015;-71
2022/07/04 08:26:48;;;;;;;13.40;5.05;;;;;;;34.55;38.71;101150.59;5156840;27;20031;-72
2022/07/04 08:29:34;;;;;;;10.68;4.20;;;;;;;34.52;37.53;101145.50;5156569;27;20106;-72
2022/07/04 08:32:20;;;;;;;8.65;4.05;;;;;;;34.22;38.18;101141.53;5156497;27;20049;-71
2022/07/04 08:35:06;;;;;;;8.45;3.80;;;;;;;34.63;37.41;101145.13;5156345;27;20363;-72
2022/07/04 08:37:55;;;;;;;9.65;4.63;;;;;;;34.37;37.23;101147.16;5156981;27;20408;-72
2022/07/04 08:40:41;;;;;;;8.32;3.85;;;;;;;34.07;37.07;101135.03;5156840;27;20050;-73
2022/07/04 08:43:28;;;;;;;6.63;3.70;;;;;;;34.54;37.61;101140.72;5156477;27;20048;-73
2022/07/04 08:46:18;;;;;;;6.22;4.03;;;;;;;34.89;36.52;101137.66;5156376;27;20470;-73
2022/07/04 08:49:20;;;;;;;7.65;3.95;;;;;;;35.05;36.06;101134.91;5156854;27;20026;-72
2022/07/04 08:52:10;;;;;;;7.30;3.80;;;;;;;35.51;36.18;101138.69;5156350;27;20167;-73
2022/07/04 09:01:15;;;;;;;8.50;4.00;;;;;;;35.99;34.74;101130.28;5156393;27;20055;-72
2022/07/04 09:04:01;;;;;;;8.77;3.72;;;;;;;36.43;33.66;101134.09;5155273;27;20367;-73
2022/07/04 09:06:47;;;;;;;13.80;6.88;;;;;;;36.25;34.42;101130.81;5155219;27;20448;-74
2022/07/04 09:09:33;;;;;;;8.68;4.70;;;;;;;36.34;34.01;101130.56;5156490;27;20083;-72
2022/07/04 09:12:19;;;;;;;6.45;4.50;;;;;;;35.99;34.73;101127.56;5156558;27;20443;-75
2022/07/04 09:15:06;;;;;;;8.32;5.82;;;;;;;35.64;34.45;101133.53;5155806;27;20101;-75
2022/07/04 09:17:52;;;;;;;11.27;4.20;;;;;;;35.40;34.93;101130.91;5156593;27;20481;-74
2022/07/04 09:20:38;;;;;;;6.60;4.20;;;;;;;35.84;35.23;101129.34;5155992;27;20027;-75
2022/07/04 09:23:31;;;;;;;8.00;3.90;;;;;;;35.90;34.03;101126.75;5154131;27;20023;-74
2022/07/04 09:26:21;;;;;;;8.77;4.30;;;;;;;35.75;35.03;101122.22;5156592;27;20378;-75
2022/07/04 09:29:07;;;;;;;11.45;4.55;;;;;;;35.50;35.86;101124.22;5155742;27;20031;-77
2022/07/04 09:31:53;;;;;;;7.97;4.43;;;;;;;35.46;36.55;101124.72;5155532;27;20109;-75
2022/07/04 09:34:55;;;;;;;13.25;7.60;;;;;;;36.17;35.23;101118.06;5155792;27;20034;-77
2022/07/04 09:37:47;;;;;;;8.70;5.22;;;;;;;36.67;35.45;101121.06;5154914;27;20098;-77
2022/07/04 09:44:06;;;;;;;9.32;4.85;;;;;;;36.64;35.37;101115.13;5139442;27;20106;-74
2022/07/04 09:46:52;;;;;;;8.38;5.00;;;;;;;35.32;36.35;101118.16;5155733;27;20049;-75
2022/07/04 09:49:38;;;;;;;9.43;4.85;;;;;;;35.03;36.29;101112.41;5155676;27;20026;-74
2022/07/04 09:52:24;;;;;;;10.85;5.75;;;;;;;35.47;36.46;101100.03;5154593;27;20023;-76
2022/07/04 09:55:10;;;;;;;8.98;4.65;;;;;;;36.26;35.95;101108.81;5154888;27;20039;-74
2022/07/04 09:57:59;;;;;;;11.45;5.30;;;;;;;36.21;34.70;101105.75;5158790;27;20033;-74
2022/07/04 10:00:47;;;;;;;13.23;5.20;;;;;;;36.93;34.57;101104.28;5157782;27;20114;-75
2022/07/04 10:03:34;;;;;;;11.48;4.55;;;;;;;36.67;35.16;101098.34;5156246;27;20367;-75
2022/07/04 10:06:24;;;;;;;9.38;5.00;;;;;;;35.49;36.03;101092.53;5141125;27;20455;-74
2022/07/04 10:09:16;;;;;;;8.45;4.95;;;;;;;35.50;35.91;101094.22;5155099;27;20019;-75
2022/07/04 10:12:02;;;;;;;12.00;4.90;;;;;;;35.71;36.18;101093.63;5154842;27;20022;-74
2022/07/04 10:14:49;;;;;;;9.20;4.93;;;;;;;35.20;36.41;101089.56;5154646;27;20030;-74
2022/07/04 10:17:34;;;;;;;12.10;5.20;;;;;;;35.39;37.21;101089.16;5154416;27;20026;-74
2022/07/04 10:20:20;;;;;;;16.58;4.78;;;;;;;35.43;35.76;101084.22;5154770;27;20445;-73
2022/07/04 10:23:07;;;;;;;10.40;5.22;;;;;;;34.98;36.54;101085.72;5154394;27;20031;-74
2022/07/04 10:25:56;;;;;;;12.57;6.03;;;;;;;35.27;36.77;101087.81;5153761;27;20105;-75
2022/07/04 10:28:42;;;;;;;10.43;5.03;;;;;;;35.59;36.10;101084.97;5154743;27;20477;-74
2022/07/04 10:31:30;;;;;;;10.43;5.03;;;;;;;35.77;35.80;101080.13;5153877;27;20382;-73
2022/07/04 10:34:19;;;;;;;11.38;4.68;;;;;;;35.57;35.92;101081.59;5154637;27;20019;-74
2022/07/04 10:37:05;;;;;;;10.05;5.30;;;;;;;35.57;36.26;101075.28;5154399;27;20026;-74
2022/07/04 10:39:51;;;;;;;13.38;5.20;;;;;;;36.10;36.48;101067.97;5154384;27;20401;-74
2022/07/04 10:42:36;;;;;;;10.60;4.72;;;;;;;35.87;36.43;101069.81;5154964;27;20030;-73
2022/07/04 10:45:32;;;;;;;10.77;5.35;;;;;;;36.49;35.29;101078.75;5154508;27;20463;-74
2022/07/04 10:48:24;;;;;;;13.77;5.47;;;;;;;35.76;36.58;101073.00;5154381;27;20035;-75
2022/07/04 10:51:10;;;;;;;10.10;5.00;;;;;;;36.10;35.85;101067.97;5154642;27;20045;-74
2022/07/04 10:54:06;;;;;;;12.95;6.10;;;;;;;36.30;35.80;101063.72;5153333;27;20118;-74
2022/07/04 10:56:54;;;;;;;9.50;5.82;;;;;;;36.03;34.37;101057.97;5154221;27;20037;-74
2022/07/04 11:00:07;;;;;;;16.00;7.57;;;;;;;36.26;35.58;101050.63;5154195;27;20482;-74
2022/07/04 11:03:17;;;;;;;9.98;5.32;;;;;;;36.30;35.75;101047.34;5154947;27;20034;-75
2022/07/04 11:06:02;;;;;;;9.80;5.30;;;;;;;36.09;35.24;101044.44;5140291;27;20035;-75
2022/07/04 11:09:10;;;;;;;8.85;5.30;;;;;;;35.98;35.67;101041.28;5140823;27;20023;-76
2022/07/04 11:11:57;;;;;;;11.52;5.65;;;;;;;35.70;35.86;101030.03;5140888;27;20027;-78
2022/07/04 11:14:47;;;;;;;7.95;5.50;;;;;;;35.82;36.46;101025.03;5155645;27;20087;-78
2022/07/04 11:17:39;;;;;;;11.02;4.93;;;;;;;35.98;36.60;101025.75;5155761;27;20030;-77
2022/07/04 11:20:28;;;;;;;13.43;5.95;;;;;;;36.08;36.20;101026.34;5142322;27;20448;-77
2022/07/04 11:23:16;;;;;;;15.82;6.13;;;;;;;36.11;36.09;101016.97;5155197;27;20075;-78
2022/07/04 11:26:02;;;;;;;14.07;5.53;;;;;;;36.10;36.38;101015.25;5141396;27;20023;-77
2022/07/04 11:28:48;;;;;;;11.88;5.43;;;;;;;36.33;36.15;101011.50;5154576;27;20363;-78
2022/07/04 11:31:45;;;;;;;8.35;5.13;;;;;;;36.49;35.02;101016.81;5159277;27;20033;-78
2022/07/04 11:34:33;;;;;;;9.60;5.47;;;;;;;36.53;35.06;101009.94;5159692;27;20023;-78
2022/07/04 11:37:18;;;;;;;7.03;5.10;;;;;;;36.13;35.77;101013.03;5158901;27;20455;-77
2022/07/04 11:46:13;;;;;;;6.65;5.32;;;;;;;36.87;35.10;101012.13;5158113;27;20025;-79
2022/07/04 11:49:12;;;;;;;11.25;4.80;;;;;;;36.50;35.54;101003.97;5158141;27;20027;-78
2022/07/04 11:51:58;;;;;;;11.25;5.28;;;;;;;36.69;35.65;101008.94;5143283;27;20022;-78
2022/07/04 11:54:45;;;;;;;10.90;4.90;;;;;;;37.00;35.12;100999.50;5158487;27;20042;-77
2022/07/04 11:57:45;;;;;;;7.25;5.18;;;;;;;36.76;35.45;100993.50;5159372;27;20095;-77
2022/07/04 12:00:31;;;;;;;10.68;5.78;;;;;;;36.57;36.23;100997.59;5144719;27;20451;-77
2022/07/04 12:03:17;;;;;;;7.43;5.20;;;;;;;37.02;34.52;100997.44;5159024;27;20130;-76
2022/07/04 12:06:05;;;;;;;11.25;5.80;;;;;;;37.10;35.42;100991.84;5159020;27;20095;-77
2022/07/04 12:08:51;;;;;;;8.95;5.47;;;;;;;36.77;35.54;100986.97;5158978;27;20399;-78
2022/07/04 12:11:58;;;;;;;6.85;5.10;;;;;;;36.62;35.00;100994.28;5143401;27;20018;-77
2022/07/04 12:14:57;;;;;;;6.05;4.85;;;;;;;36.59;35.17;100995.50;5158800;27;20105;-77
2022/07/04 12:17:43;;;;;;;9.13;5.22;;;;;;;36.84;34.39;101001.59;5143459;27;20344;-77
2022/07/04 12:20:29;;;;;;;11.65;5.30;;;;;;;36.80;34.98;100998.38;5157885;27;20033;-77
2022/07/04 12:23:17;;;;;;;7.78;4.90;;;;;;;36.68;35.42;101002.59;5142786;27;20438;-77
2022/07/04 12:26:03;;;;;;;12.50;5.55;;;;;;;36.19;35.10;100995.91;5158673;27;20367;-78
2022/07/04 12:28:49;;;;;;;8.50;5.57;;;;;;;36.35;35.41;100994.94;5157998;27;20320;-76
2022/07/04 12:31:43;;;;;;;9.95;5.32;;;;;;;36.74;35.11;100990.94;5157990;27;20046;-76
2022/07/04 12:34:29;;;;;;;7.82;5.30;;;;;;;37.31;33.57;100989.19;5142836;27;20099;-78
2022/07/04 12:37:16;;;;;;;12.40;5.32;;;;;;;37.66;34.31;100987.50;5143444;27;20026;-78
2022/07/04 12:40:09;;;;;;;7.93;5.00;;;;;;;37.53;33.70;100981.88;5128869;27;20057;-79
2022/07/04 12:42:56;;;;;;;8.57;4.80;;;;;;;37.35;34.23;100979.56;5158105;27;20069;-79
2022/07/04 12:45:45;;;;;;;12.65;5.03;;;;;;;36.80;34.49;100983.88;5144276;27;20095;-77
2022/07/04 12:48:31;;;;;;;8.15;5.15;;;;;;;36.60;35.30;100982.72;5159040;27;20050;-78
2022/07/04 12:51:23;;;;;;;11.60;5.80;;;;;;;35.23;36.82;100982.91;5157271;27;20027;-76
2022/07/04 12:54:11;;;;;;;8.30;4.97;;;;;;;35.58;36.19;100976.06;5142314;27;20043;-76
2022/07/04 12:57:05;;;;;;;7.78;5.45;;;;;;;36.28;36.63;100980.34;5158575;27;20052;-77
2022/07/04 12:59:51;;;;;;;6.68;5.20;;;;;;;36.81;35.49;100974.66;5156867;27;20023;-77
2022/07/04 13:02:36;;;;;;;11.15;5.35;;;;;;;37.03;35.44;100962.72;5156709;27;20440;-76
2022/07/04 13:05:22;;;;;;;8.38;5.43;;;;;;;36.93;34.94;100963.06;5155934;27;20160;-76
2022/07/04 13:08:08;;;;;;;12.60;5.72;;;;;;;37.17;35.64;100968.19;5142671;27;20105;-77
2022/07/04 13:12:24;;;;;;;9.90;5.30;;;;;;;36.94;34.99;100961.16;5156596;27;20023;-77
2022/07/04 13:14:00;;;;;;;7.75;5.00;;;;;;;37.06;35.00;100957.75;5156257;27;20027;-77
2022/07/04 13:16:45;;;;;;;11.15;5.53;;;;;;;36.64;35.29;100962.19;5140419;27;20022;-77
2022/07/04 13:19:31;;;;;;;8.43;5.13;;;;;;;36.75;35.35;100959.84;5157988;27;20019;-77
2022/07/04 13:22:18;;;;;;;6.68;5.00;;;;;;;36.55;35.50;100952.38;5155947;27;20023;-77
2022/07/04 13:25:06;;;;;;;6.97;5.38;;;;;;;36.24;35.71;100947.09;5141990;27;20068;-78
2022/07/04 13:27:51;;;;;;;12.45;6.55;;;;;;;36.18;36.90;100950.53;5142066;27;20026;-78
2022/07/04 13:30:38;;;;;;;10.80;5.57;;;;;;;35.89;36.52;100946.91;5157546;27;20414;-78
2022/07/04 13:33:24;;;;;;;8.40;5.45;;;;;;;35.44;36.82;100950.47;5157332;27;20102;-78
2022/07/04 13:36:09;;;;;;;6.38;5.78;;;;;;;35.78;37.34;100948.19;5141098;27;20053;-78
2022/07/04 13:38:55;;;;;;;14.32;6.30;;;;;;;36.26;36.78;100938.72;5156615;27;20014;-75
2022/07/04 13:41:42;;;;;;;9.20;5.53;;;;;;;35.93;36.86;100932.72;5157542;27;20054;-77
2022/07/04 13:44:27;;;;;;;10.77;5.50;;;;;;;36.30;36.96;100931.84;5157266;27;20042;-77
2022/07/04 13:47:13;;;;;;;7.60;5.28;;;;;;;36.59;36.67;100932.72;5156195;27;20045;-76
2022/07/04 13:49:59;;;;;;;6.78;5.22;;;;;;;36.09;36.38;100924.38;5156235;27;20113;-74
2022/07/04 13:52:45;;;;;;;7.22;5.47;;;;;;;36.80;35.74;100924.63;5155833;27;20027;-77